createdAt,value
2022-09-27T00:01:08.572Z,100.00
2022-09-27T00:03:37.558Z,100.00
2022-09-27T00:06:09.238Z,100.00
2022-09-27T00:08:38.329Z,100.00
2022-09-27T00:11:09.271Z,100.00
2022-09-27T00:13:39.160Z,100.00
2022-09-27T00:16:08.504Z,100.00
2022-09-27T00:18:37.191Z,100.00
2022-09-27T00:21:07.976Z,100.00
2022-09-27T00:23:37.008Z,100.00
2022-09-27T00:26:06.134Z,100.00
2022-09-27T00:28:35.574Z,100.00
2022-09-27T00:31:06.298Z,100.00
2022-09-27T00:33:34.851Z,100.00
2022-09-27T00:36:06.180Z,100.00
2022-09-27T00:38:35.201Z,100.00
2022-09-27T00:41:03.582Z,100.00
2022-09-27T00:43:45.868Z,100.00
2022-09-27T00:46:16.675Z,100.00
2022-09-27T00:48:45.472Z,100.00
2022-09-27T00:51:14.177Z,100.00
2022-09-27T00:53:47.158Z,100.00
2022-09-27T00:56:21.920Z,100.00
2022-09-27T00:58:56.950Z,100.00
2022-09-27T01:01:27.181Z,100.00
2022-09-27T01:04:00.444Z,100.00
2022-09-27T01:07:06.459Z,100.00
2022-09-27T01:09:36.172Z,100.00
2022-09-27T01:12:15.135Z,100.00
2022-09-27T01:14:58.016Z,100.00
2022-09-27T01:17:41.794Z,100.00
2022-09-27T01:20:41.759Z,100.00
2022-09-27T01:23:35.861Z,100.00
2022-09-27T01:26:15.086Z,100.00
2022-09-27T01:28:57.934Z,100.00
2022-09-27T01:31:36.030Z,100.00
2022-09-27T01:34:09.675Z,100.00
2022-09-27T01:37:00.634Z,100.00
2022-09-27T01:39:39.187Z,100.00
2022-09-27T01:42:38.680Z,100.00
2022-09-27T01:45:15.763Z,100.00
2022-09-27T01:47:58.489Z,100.00
2022-09-27T01:50:53.001Z,100.00
2022-09-27T01:53:25.309Z,100.00
2022-09-27T01:56:25.373Z,100.00
2022-09-27T01:59:08.936Z,100.00
2022-09-27T02:01:41.193Z,100.00
2022-09-27T02:04:15.136Z,100.00
2022-09-27T02:06:50.681Z,100.00
2022-09-27T02:09:26.796Z,100.00
2022-09-27T02:12:15.480Z,100.00
2022-09-27T02:14:49.949Z,100.00
2022-09-27T02:17:27.563Z,100.00
2022-09-27T02:20:08.695Z,100.00
2022-09-27T02:22:49.177Z,100.00
2022-09-27T02:25:25.596Z,100.00
2022-09-27T02:28:07.273Z,100.00
2022-09-27T02:30:38.429Z,100.00
2022-09-27T02:33:40.363Z,100.00
2022-09-27T02:36:11.951Z,100.00
2022-09-27T02:38:42.832Z,100.00
2022-09-27T02:41:15.814Z,100.00
2022-09-27T02:43:45.974Z,100.00
2022-09-27T02:46:45.626Z,100.00
2022-09-27T02:49:31.037Z,100.00
2022-09-27T02:52:25.389Z,100.00
2022-09-27T02:55:03.398Z,100.00
2022-09-27T02:58:02.677Z,100.00
2022-09-27T03:00:50.490Z,100.00
2022-09-27T03:03:47.184Z,100.00
2022-09-27T03:06:19.841Z,100.00
2022-09-27T03:08:50.444Z,100.00
2022-09-27T03:11:19.991Z,100.00
2022-09-27T03:14:07.490Z,100.00
2022-09-27T03:16:39.472Z,100.00
2022-09-27T03:19:27.107Z,100.00
2022-09-27T03:22:18.624Z,100.00
2022-09-27T03:24:49.481Z,100.00
2022-09-27T03:27:18.210Z,100.00
2022-09-27T03:29:46.842Z,100.00
2022-09-27T03:32:15.352Z,100.00
2022-09-27T03:35:12.947Z,100.00
2022-09-27T03:37:42.125Z,100.00
2022-09-27T03:40:12.650Z,100.00
2022-09-27T03:42:46.140Z,100.00
2022-09-27T03:45:17.744Z,100.00
2022-09-27T03:47:46.633Z,100.00
2022-09-27T03:50:15.627Z,100.00
2022-09-27T03:52:45.040Z,100.00
2022-09-27T03:55:15.542Z,100.00
2022-09-27T03:57:46.750Z,100.00
2022-09-27T04:00:18.217Z,100.00
2022-09-27T04:02:46.949Z,100.00
2022-09-27T04:05:25.071Z,100.00
2022-09-27T04:08:00.696Z,100.00
2022-09-27T04:10:32.172Z,100.00
2022-09-27T04:13:00.841Z,100.00
2022-09-27T04:15:33.745Z,100.00
2022-09-27T04:18:21.321Z,100.00
2022-09-27T04:21:08.640Z,100.00
2022-09-27T04:23:41.406Z,100.00
2022-09-27T04:26:11.451Z,100.00
2022-09-27T04:28:59.757Z,100.00
2022-09-27T04:31:28.467Z,100.00
2022-09-27T04:34:12.105Z,100.00
2022-09-27T04:36:39.659Z,100.00
2022-09-27T04:39:15.386Z,100.00
2022-09-27T04:41:47.527Z,100.00
2022-09-27T04:44:16.670Z,100.00
2022-09-27T04:46:51.090Z,100.00
2022-09-27T04:49:19.980Z,100.00
2022-09-27T04:51:48.931Z,100.00
2022-09-27T04:54:17.511Z,100.00
2022-09-27T04:56:55.981Z,100.00
2022-09-27T04:59:24.727Z,100.00
2022-09-27T05:01:53.495Z,100.00
2022-09-27T05:04:39.416Z,100.00
2022-09-27T05:07:10.262Z,100.00
2022-09-27T05:09:45.413Z,100.00
2022-09-27T05:12:15.875Z,100.00
2022-09-27T05:14:56.816Z,100.00
2022-09-27T05:17:45.723Z,100.00
2022-09-27T05:20:27.478Z,100.00
2022-09-27T05:23:04.604Z,100.00
2022-09-27T05:25:34.423Z,100.00
2022-09-27T05:28:06.447Z,100.00
2022-09-27T05:30:35.033Z,100.00
2022-09-27T05:33:10.988Z,100.00
2022-09-27T05:35:48.048Z,100.00
2022-09-27T05:38:16.871Z,100.00
2022-09-27T05:40:51.181Z,100.00
2022-09-27T05:43:21.600Z,100.00
2022-09-27T05:45:53.313Z,100.00
2022-09-27T05:48:23.435Z,100.00
2022-09-27T05:51:00.925Z,100.00
2022-09-27T05:53:29.689Z,100.00
2022-09-27T05:56:03.066Z,100.00
2022-09-27T05:58:43.709Z,100.00
2022-09-27T06:01:17.061Z,100.00
2022-09-27T06:04:05.676Z,100.00
2022-09-27T06:07:09.434Z,100.00
2022-09-27T06:09:37.931Z,100.00
2022-09-27T06:12:12.041Z,100.00
2022-09-27T06:14:42.345Z,100.00
2022-09-27T06:17:18.645Z,100.00
2022-09-27T06:19:47.788Z,100.00
2022-09-27T06:22:17.062Z,100.00
2022-09-27T06:24:58.670Z,100.00
2022-09-27T06:27:32.809Z,100.00
2022-09-27T06:30:09.634Z,100.00
2022-09-27T06:32:49.951Z,100.00
2022-09-27T06:35:27.605Z,100.00
2022-09-27T06:37:57.241Z,100.00
2022-09-27T06:40:27.599Z,100.00
2022-09-27T06:43:15.933Z,100.00
2022-09-27T06:46:06.246Z,100.00
2022-09-27T06:49:01.115Z,100.00
2022-09-27T06:51:29.926Z,100.00
2022-09-27T06:53:58.914Z,100.00
2022-09-27T06:56:28.160Z,100.00
2022-09-27T06:59:15.082Z,100.00
2022-09-27T07:01:45.724Z,100.00
2022-09-27T07:04:26.539Z,100.00
2022-09-27T07:07:15.331Z,100.00
2022-09-27T07:09:48.643Z,100.00
2022-09-27T07:12:17.881Z,100.00
2022-09-27T07:14:46.412Z,100.00
2022-09-27T07:17:20.045Z,100.00
2022-09-27T07:19:51.357Z,100.00
2022-09-27T07:22:20.696Z,100.00
2022-09-27T07:24:55.348Z,100.00
2022-09-27T07:27:26.864Z,100.00
2022-09-27T07:29:56.997Z,100.00
2022-09-27T07:32:28.437Z,100.00
2022-09-27T07:34:57.434Z,100.00
2022-09-27T07:37:26.238Z,100.00
2022-09-27T07:39:54.645Z,100.00
2022-09-27T07:42:23.618Z,100.00
2022-09-27T07:44:54.654Z,100.00
2022-09-27T07:47:52.193Z,100.00
2022-09-27T07:50:44.022Z,100.00
2022-09-27T07:53:42.101Z,100.00
2022-09-27T07:56:33.600Z,100.00
2022-09-27T07:59:02.940Z,100.00
2022-09-27T08:01:32.039Z,100.00
2022-09-27T08:04:02.136Z,100.00
2022-09-27T08:06:31.449Z,100.00
2022-09-27T08:09:01.868Z,100.00
2022-09-27T08:11:31.237Z,100.00
2022-09-27T08:13:59.941Z,100.00
2022-09-27T08:16:34.291Z,100.00
2022-09-27T08:19:26.800Z,100.00
2022-09-27T08:21:58.907Z,100.00
2022-09-27T08:24:33.120Z,100.00
2022-09-27T08:27:15.676Z,100.00
2022-09-27T08:29:53.728Z,100.00
2022-09-27T08:32:23.434Z,100.00
2022-09-27T08:34:54.717Z,100.00
2022-09-27T08:37:24.783Z,100.00
2022-09-27T08:39:53.651Z,100.00
2022-09-27T08:42:32.667Z,100.00
2022-09-27T08:45:09.661Z,100.00
2022-09-27T08:47:42.036Z,100.00
2022-09-27T08:50:25.095Z,100.00
2022-09-27T08:52:59.431Z,100.00
2022-09-27T08:55:37.690Z,100.00
2022-09-27T08:58:17.907Z,100.00
2022-09-27T09:00:47.326Z,100.00
2022-09-27T09:03:20.813Z,100.00
2022-09-27T09:06:11.143Z,100.00
2022-09-27T09:08:51.495Z,100.00
2022-09-27T09:11:53.409Z,100.00
2022-09-27T09:14:48.400Z,100.00
2022-09-27T09:17:30.337Z,100.00
2022-09-27T09:20:34.904Z,100.00
2022-09-27T09:23:25.535Z,100.00
2022-09-27T09:26:02.228Z,100.00
2022-09-27T09:28:43.045Z,100.00
2022-09-27T09:31:21.525Z,100.00
2022-09-27T09:33:55.446Z,100.00
2022-09-27T09:36:31.560Z,100.00
2022-09-27T09:39:07.109Z,100.00
2022-09-27T09:41:40.739Z,100.00
2022-09-27T09:44:19.105Z,100.00
2022-09-27T09:46:51.035Z,100.00
2022-09-27T09:49:24.545Z,100.00
2022-09-27T09:51:57.278Z,100.00
2022-09-27T09:54:33.114Z,100.00
2022-09-27T09:57:07.298Z,100.00
2022-09-27T09:59:43.143Z,100.00
2022-09-27T10:02:25.638Z,100.00
2022-09-27T10:04:58.583Z,100.00
2022-09-27T10:07:29.431Z,100.00
2022-09-27T10:10:03.301Z,100.00
2022-09-27T10:13:00.298Z,100.00
2022-09-27T10:15:34.521Z,100.00
2022-09-27T10:18:03.488Z,100.00
2022-09-27T10:20:37.286Z,100.00
2022-09-27T10:23:14.753Z,100.00
2022-09-27T10:26:09.192Z,100.00
2022-09-27T10:28:51.196Z,100.00
2022-09-27T10:31:43.326Z,100.00
2022-09-27T10:34:32.228Z,100.00
2022-09-27T10:37:17.627Z,100.00
2022-09-27T10:40:27.529Z,100.00
2022-09-27T10:42:58.470Z,100.00
2022-09-27T10:45:40.789Z,100.00
2022-09-27T10:48:22.495Z,100.00
2022-09-27T10:51:00.973Z,100.00
2022-09-27T10:54:00.380Z,100.00
2022-09-27T10:56:34.940Z,100.00
2022-09-27T10:59:06.026Z,100.00
2022-09-27T11:01:46.063Z,100.00
2022-09-27T11:04:31.751Z,100.00
2022-09-27T11:07:17.018Z,100.00
2022-09-27T11:10:03.384Z,100.00
2022-09-27T11:12:36.917Z,100.00
2022-09-27T11:15:18.180Z,100.00
2022-09-27T11:18:04.652Z,100.00
2022-09-27T11:20:41.042Z,97.96
2022-09-27T11:23:33.674Z,95.34
2022-09-27T11:26:23.885Z,96.37
2022-09-27T11:29:02.081Z,99.80
2022-09-27T11:32:14.932Z,100.00
2022-09-27T11:34:59.802Z,99.22
2022-09-27T11:37:40.240Z,99.58
2022-09-27T11:40:21.787Z,99.33
2022-09-27T11:43:17.642Z,98.65
2022-09-27T11:46:15.515Z,100.00
2022-09-27T11:49:02.136Z,100.00
2022-09-27T11:52:02.919Z,100.00
2022-09-27T11:55:03.170Z,100.00
2022-09-27T11:57:37.558Z,100.00
2022-09-27T12:00:18.820Z,100.00
2022-09-27T12:03:25.256Z,100.00
2022-09-27T12:06:07.882Z,100.00
2022-09-27T12:08:59.549Z,100.00
2022-09-27T12:11:30.921Z,100.00
2022-09-27T12:14:04.232Z,100.00
2022-09-27T12:16:34.186Z,100.00
2022-09-27T12:19:04.482Z,100.00
2022-09-27T12:21:56.315Z,98.23
2022-09-27T12:24:26.787Z,98.08
2022-09-27T12:27:10.514Z,96.13
2022-09-27T12:29:42.061Z,93.73
2022-09-27T12:32:19.074Z,90.45
2022-09-27T12:34:56.090Z,88.33
2022-09-27T12:37:31.551Z,86.18
2022-09-27T12:40:04.899Z,84.87
2022-09-27T12:45:45.322Z,81.36
2022-09-27T12:48:23.129Z,80.98
2022-09-27T12:50:56.912Z,79.55
2022-09-27T12:53:32.864Z,80.12
2022-09-27T12:56:32.243Z,76.91
2022-09-27T12:59:30.707Z,77.63
2022-09-27T13:02:22.946Z,77.52
2022-09-27T13:05:19.495Z,78.13
2022-09-27T13:08:02.464Z,83.94
2022-09-27T13:10:41.795Z,84.06
2022-09-27T13:13:26.782Z,87.23
2022-09-27T13:16:00.221Z,85.86
2022-09-27T13:18:53.804Z,82.88
2022-09-27T13:21:59.794Z,80.38
2022-09-27T13:24:50.126Z,86.42
2022-09-27T13:27:44.627Z,88.96
2022-09-27T13:30:47.349Z,86.42
2022-09-27T13:33:49.271Z,84.58
2022-09-27T13:36:35.349Z,88.51
2022-09-27T13:39:23.020Z,89.94
2022-09-27T13:42:36.039Z,90.09
2022-09-27T13:45:22.732Z,90.72
2022-09-27T13:47:53.318Z,94.71
2022-09-27T13:50:40.727Z,95.69
2022-09-27T13:53:23.850Z,96.38
2022-09-27T13:55:54.087Z,99.46
2022-09-27T13:58:42.812Z,98.53
2022-09-27T14:01:37.635Z,100.00
2022-09-27T14:04:16.193Z,100.00
2022-09-27T14:06:49.691Z,100.00
2022-09-27T14:09:22.132Z,100.00
2022-09-27T14:12:03.984Z,100.00
2022-09-27T14:14:34.993Z,100.00
2022-09-27T14:17:10.175Z,100.00
2022-09-27T14:19:42.506Z,100.00
2022-09-27T14:22:16.107Z,100.00
2022-09-27T14:24:58.103Z,100.00
2022-09-27T14:27:39.575Z,100.00
2022-09-27T14:30:21.010Z,100.00
2022-09-27T14:33:00.917Z,100.00
2022-09-27T14:36:07.425Z,100.00
2022-09-27T14:38:38.954Z,100.00
2022-09-27T14:41:25.886Z,100.00
2022-09-27T14:43:56.670Z,100.00
2022-09-27T14:46:28.840Z,100.00
2022-09-27T14:48:59.744Z,100.00
2022-09-27T14:51:30.736Z,100.00
2022-09-27T14:54:04.499Z,100.00
2022-09-27T14:56:37.704Z,100.00
2022-09-27T14:59:16.496Z,100.00
2022-09-27T15:01:50.840Z,100.00
2022-09-27T15:04:23.469Z,100.00
2022-09-27T15:06:53.811Z,100.00
2022-09-27T15:09:24.621Z,100.00
2022-09-27T15:11:56.628Z,100.00
2022-09-27T15:14:29.695Z,100.00
2022-09-27T15:17:01.919Z,100.00
2022-09-27T15:19:32.132Z,100.00
2022-09-27T15:22:24.092Z,100.00
2022-09-27T15:24:55.736Z,100.00
2022-09-27T15:27:26.234Z,100.00
2022-09-27T15:29:57.240Z,100.00
2022-09-27T15:32:28.276Z,100.00
2022-09-27T15:35:07.712Z,100.00
2022-09-27T15:37:37.944Z,100.00
2022-09-27T15:40:49.757Z,100.00
2022-09-27T15:43:22.814Z,100.00
2022-09-27T15:45:53.456Z,100.00
2022-09-27T15:48:22.538Z,100.00
2022-09-27T15:50:52.704Z,100.00
2022-09-27T15:53:42.384Z,100.00
2022-09-27T15:56:15.427Z,100.00
2022-09-27T15:58:45.917Z,100.00
2022-09-27T16:01:20.407Z,100.00
2022-09-27T16:03:50.309Z,100.00
2022-09-27T16:06:20.476Z,100.00
2022-09-27T16:08:48.745Z,100.00
2022-09-27T16:11:18.637Z,100.00
2022-09-27T16:13:47.512Z,100.00
2022-09-27T16:16:21.581Z,100.00
2022-09-27T16:18:50.465Z,100.00
2022-09-27T16:21:20.946Z,100.00
2022-09-27T16:23:49.409Z,100.00
2022-09-27T16:26:20.016Z,100.00
2022-09-27T16:28:49.257Z,100.00
2022-09-27T16:31:18.901Z,100.00
2022-09-27T16:33:49.606Z,100.00
2022-09-27T16:36:20.864Z,100.00
2022-09-27T16:38:53.120Z,100.00
2022-09-27T16:41:22.647Z,100.00
2022-09-27T16:43:51.568Z,100.00
2022-09-27T16:46:20.118Z,100.00
2022-09-27T16:48:49.902Z,100.00
2022-09-27T16:51:39.754Z,100.00
2022-09-27T16:54:09.190Z,100.00
2022-09-27T16:56:38.524Z,100.00
2022-09-27T16:59:07.226Z,100.00
2022-09-27T17:01:36.156Z,100.00
2022-09-27T17:04:04.820Z,100.00
2022-09-27T17:06:34.693Z,100.00
2022-09-27T17:09:07.229Z,100.00
2022-09-27T17:11:36.495Z,100.00
2022-09-27T17:14:08.468Z,100.00
2022-09-27T17:16:37.473Z,100.00
2022-09-27T17:19:06.340Z,100.00
2022-09-27T17:21:38.263Z,100.00
2022-09-27T17:24:07.937Z,100.00
2022-09-27T17:26:37.035Z,100.00
2022-09-27T17:29:05.705Z,100.00
2022-09-27T17:31:34.990Z,100.00
2022-09-27T17:34:04.241Z,100.00
2022-09-27T17:36:37.654Z,100.00
2022-09-27T17:39:06.424Z,100.00
2022-09-27T17:41:39.665Z,100.00
2022-09-27T17:44:08.558Z,100.00
2022-09-27T17:46:38.161Z,100.00
2022-09-27T17:49:24.128Z,100.00
2022-09-27T17:51:55.000Z,100.00
2022-09-27T17:54:26.381Z,100.00
2022-09-27T17:56:55.416Z,100.00
2022-09-27T17:59:24.151Z,100.00
2022-09-27T18:01:53.681Z,100.00
2022-09-27T18:04:22.498Z,100.00
2022-09-27T18:06:51.040Z,100.00
2022-09-27T18:09:21.323Z,100.00
2022-09-27T18:11:49.850Z,100.00
2022-09-27T18:14:18.296Z,100.00
2022-09-27T18:16:46.790Z,100.00
2022-09-27T18:19:17.536Z,100.00
2022-09-27T18:21:46.087Z,100.00
2022-09-27T18:24:16.591Z,100.00
2022-09-27T18:26:49.234Z,100.00
2022-09-27T18:29:19.479Z,100.00
2022-09-27T18:31:49.402Z,100.00
2022-09-27T18:34:19.425Z,100.00
2022-09-27T18:36:47.805Z,100.00
2022-09-27T18:39:19.301Z,100.00
2022-09-27T18:41:49.567Z,100.00
2022-09-27T18:44:19.723Z,100.00
2022-09-27T18:46:48.668Z,100.00
2022-09-27T18:49:21.146Z,100.00
2022-09-27T18:51:53.518Z,100.00
2022-09-27T18:54:23.391Z,100.00
2022-09-27T18:56:53.699Z,100.00
2022-09-27T18:59:24.049Z,100.00
2022-09-27T19:01:53.459Z,100.00
2022-09-27T19:04:25.064Z,100.00
2022-09-27T19:06:54.686Z,100.00
2022-09-27T19:09:23.366Z,100.00
2022-09-27T19:11:53.452Z,100.00
2022-09-27T19:14:23.707Z,100.00
2022-09-27T19:16:52.285Z,100.00
2022-09-27T19:19:21.424Z,100.00
2022-09-27T19:21:50.554Z,100.00
2022-09-27T19:24:19.106Z,100.00
2022-09-27T19:26:47.621Z,100.00
2022-09-27T19:29:17.686Z,100.00
2022-09-27T19:31:46.765Z,100.00
2022-09-27T19:34:15.569Z,100.00
2022-09-27T19:36:44.207Z,100.00
2022-09-27T19:39:21.586Z,100.00
2022-09-27T19:41:50.839Z,100.00
2022-09-27T19:44:20.794Z,100.00
2022-09-27T19:46:49.234Z,100.00
2022-09-27T19:49:18.955Z,100.00
2022-09-27T19:51:47.579Z,100.00
2022-09-27T19:54:16.699Z,100.00
2022-09-27T19:56:45.368Z,100.00
2022-09-27T19:59:14.075Z,100.00
2022-09-27T20:01:44.080Z,100.00
2022-09-27T20:04:14.062Z,100.00
2022-09-27T20:06:42.936Z,100.00
2022-09-27T20:09:11.277Z,100.00
2022-09-27T20:11:40.311Z,100.00
2022-09-27T20:14:08.666Z,100.00
2022-09-27T20:16:41.076Z,100.00
2022-09-27T20:19:12.266Z,100.00
2022-09-27T20:21:41.212Z,100.00
2022-09-27T20:24:10.285Z,100.00
2022-09-27T20:26:39.988Z,100.00
2022-09-27T20:29:08.422Z,100.00
2022-09-27T20:31:38.298Z,100.00
2022-09-27T20:34:07.406Z,100.00
2022-09-27T20:36:39.690Z,100.00
2022-09-27T20:39:10.555Z,100.00
2022-09-27T20:41:40.933Z,100.00
2022-09-27T20:44:11.280Z,100.00
2022-09-27T20:46:41.208Z,100.00
2022-09-27T20:49:11.936Z,100.00
2022-09-27T20:51:43.915Z,100.00
2022-09-27T20:54:14.467Z,100.00
2022-09-27T20:56:46.738Z,100.00
2022-09-27T20:59:17.590Z,100.00
2022-09-27T21:01:47.998Z,100.00
2022-09-27T21:04:22.863Z,100.00
2022-09-27T21:06:53.932Z,100.00
2022-09-27T21:09:22.770Z,100.00
2022-09-27T21:11:54.002Z,100.00
2022-09-27T21:14:22.427Z,100.00
2022-09-27T21:16:50.888Z,100.00
2022-09-27T21:19:19.596Z,100.00
2022-09-27T21:21:47.925Z,100.00
2022-09-27T21:24:22.138Z,100.00
2022-09-27T21:26:50.655Z,100.00
2022-09-27T21:29:22.451Z,100.00
2022-09-27T21:31:51.541Z,100.00
2022-09-27T21:34:19.890Z,100.00
2022-09-27T21:36:48.649Z,100.00
2022-09-27T21:39:17.669Z,100.00
2022-09-27T21:41:47.366Z,100.00
2022-09-27T21:44:15.969Z,100.00
2022-09-27T21:46:44.501Z,100.00
2022-09-27T21:49:13.091Z,100.00
2022-09-27T21:51:43.237Z,100.00
2022-09-27T21:54:15.680Z,100.00
2022-09-27T21:56:45.129Z,100.00
2022-09-27T21:59:18.282Z,100.00
2022-09-27T22:01:47.670Z,100.00
2022-09-27T22:04:16.200Z,100.00
2022-09-27T22:06:44.558Z,100.00
2022-09-27T22:09:15.901Z,100.00
2022-09-27T22:11:47.938Z,100.00
2022-09-27T22:14:19.998Z,100.00
2022-09-27T22:16:48.727Z,100.00
2022-09-27T22:19:17.605Z,100.00
2022-09-27T22:21:47.455Z,100.00
2022-09-27T22:24:17.819Z,100.00
2022-09-27T22:26:48.615Z,100.00
2022-09-27T22:29:18.980Z,100.00
2022-09-27T22:31:47.973Z,100.00
2022-09-27T22:34:18.990Z,100.00
2022-09-27T22:36:47.640Z,100.00
2022-09-27T22:39:16.257Z,100.00
2022-09-27T22:41:45.010Z,100.00
2022-09-27T22:44:14.341Z,100.00
2022-09-27T22:46:46.176Z,100.00
2022-09-27T22:49:15.687Z,100.00
2022-09-27T22:51:45.149Z,100.00
2022-09-27T22:54:13.960Z,100.00
2022-09-27T22:56:43.997Z,100.00
2022-09-27T22:59:13.803Z,100.00
2022-09-27T23:01:52.541Z,100.00
2022-09-27T23:04:51.549Z,100.00
2022-09-27T23:07:23.832Z,100.00
2022-09-27T23:10:19.809Z,100.00
2022-09-27T23:16:25.729Z,100.00
2022-09-27T23:18:58.616Z,100.00
2022-09-27T23:21:29.305Z,100.00
2022-09-27T23:24:00.016Z,100.00
2022-09-27T23:26:29.885Z,100.00
2022-09-27T23:29:00.932Z,100.00
2022-09-27T23:31:32.656Z,100.00
2022-09-27T23:34:05.063Z,100.00
2022-09-27T23:37:15.495Z,100.00
2022-09-27T23:39:44.214Z,100.00
2022-09-27T23:42:14.533Z,100.00
2022-09-27T23:44:43.519Z,100.00
2022-09-27T23:47:12.681Z,100.00
2022-09-27T23:49:43.427Z,100.00
2022-09-27T23:52:23.641Z,100.00
2022-09-27T23:55:50.618Z,100.00
2022-09-27T23:58:25.986Z,100.00
